LRBC/BCM METAR and TAF weather

Enter ICAO airport designator
Station Type Date Time Source
LRBC METAR 2021/05/17 23:00 UTC NOAA

LRBC 172300Z AUTO 02002KT 9999 FEW120/// SCT180/// 12/10 Q1001


Station Type Date Time Source
LRBC Decoded METAR 2021/05/17 23:00 UTC NOAA

Bacau, Romania (LRBC) 46-35N 026-58E 190M
May 17, 2021 - 07:00 PM EDT / 2021.05.17 2300 UTC
Wind: from the NNE (020 degrees) at 2 MPH (2 KT):0
Visibility: greater than 7 mile(s):0
Sky conditions: partly cloudy
Temperature: 53 F (12 C)
Dew Point: 50 F (10 C)
Relative Humidity: 87%
Pressure (altimeter): 29.56 in. Hg (1001 hPa)
ob: LRBC 172300Z AUTO 02002KT 9999 FEW120/// SCT180/// 12/10 Q1001
cycle: 23

Station Type Date Time Source
LRBC TAF 2010/08/31 20:30 UTC NOAA

TAF LRBC 312030Z 3121/0203 CNL

Example: see airport list